ADDS METAR Data INFO
IDs: Format: Raw Decoded Include TAF

Data at: 2114 UTC 22 Oct 2017

KCHO 222053Z 15007KT 10SM SCT046 24/13 A3028 RMK AO2 SLP248 T02440128 56014
KCHO 221953Z 12007KT 10SM FEW120 25/12 A3029 RMK AO2 SLP252 T02500122
KCHO 221853Z 16005KT 10SM FEW120 25/12 A3029 RMK AO2 SLP254 T02500117
KCHO 221753Z 16010KT 10SM CLR 25/12 A3032 RMK AO2 SLP261 T02500122 10256 20106 58019
KCHO 221653Z 16007KT 10SM CLR 24/12 A3035 RMK AO2 SLP272 T02390122
KCHO 221553Z 00000KT 10SM CLR 22/13 A3037 RMK AO2 SLP278 T02170128
KCHO 221453Z 00000KT 10SM CLR 19/13 A3037 RMK AO2 SLP282 T01940133 50000
KCHO 221353Z 00000KT 10SM CLR 17/13 A3038 RMK AO2 SLP286 T01670128
KCHO 221253Z 00000KT 10SM CLR 14/12 A3038 RMK AO2 SLP283 T01390117
KCHO 221153Z 26003KT 7SM CLR 11/09 A3037 RMK AO2 SLP282 T01060094 10139 20106 51012
KCHO 221053Z 00000KT 10SM CLR 11/09 A3036 RMK AO2 SLP275 T01110094
KCHO 220953Z 00000KT 10SM CLR 11/10 A3036 RMK AO2 SLP276 T01110100
KCHO 220853Z AUTO 00000KT 9SM CLR 11/11 A3034 RMK AO2 SLP269 T01110106 55002
KCHO 220753Z AUTO 33003KT 10SM CLR 13/11 A3033 RMK AO2 SLP264 T01280111
KCHO 220653Z AUTO 00000KT 10SM CLR 13/11 A3034 RMK AO2 SLP269 T01280111
KCHO 220553Z AUTO 34003KT 10SM CLR 13/11 A3034 RMK AO2 SLP270 T01280111 10189 20128 58003
KCHO 220453Z AUTO 00000KT 10SM CLR 14/12 A3035 RMK AO2 SLP272 T01440117 402610089
KCHO 220353Z AUTO 00000KT 10SM CLR 14/12 A3036 RMK AO2 SLP274 T01440122
KCHO 220253Z 34004KT 10SM CLR 16/12 A3035 RMK AO2 SLP273 T01560122 51004
KCHO 220153Z 00000KT 10SM CLR 15/13 A3035 RMK AO2 SLP275 T01500128
KCHO 220053Z 00000KT 10SM CLR 18/13 A3034 RMK AO2 SLP273 T01780128
KCHO 212353Z 00000KT 10SM CLR 19/12 A3034 RMK AO2 SLP271 T01940117 10261 20194 53011
KCHO 212253Z 19003KT 10SM CLR 22/12 A3033 RMK AO2 SLP268 T02170117
KCHO 212153Z 16004KT 10SM CLR 23/11 A3032 RMK AO2 SLP263 T02280111
KCHO 212053Z 15005KT 10SM CLR 24/10 A3031 RMK AO2 SLP259 T02440100 55003
KCHO 211953Z VRB04KT 10SM CLR 26/09 A3030 RMK AO2 SLP254 T02560094
KCHO 211853Z 00000KT 10SM CLR 26/09 A3030 RMK AO2 SLP255 T02560089
KCHO 211753Z VRB05KT 10SM CLR 25/09 A3032 RMK AO2 SLP261 T02500089 10256 20094 58013
KCHO 211653Z 00000KT 10SM CLR 24/07 A3034 RMK AO2 SLP269 T02440072
KCHO 211553Z 00000KT 10SM CLR 23/09 A3036 RMK AO2 SLP275 T02280089
KCHO 211453Z 00000KT 10SM CLR 21/09 A3036 RMK AO2 SLP275 T02060094 50009
KCHO 211353Z 00000KT 10SM CLR 17/11 A3036 RMK AO2 SLP278 T01670106
KCHO 211253Z 00000KT 10SM CLR 13/10 A3035 RMK AO2 SLP275 T01280100
KCHO 211153Z 00000KT 9SM CLR 09/08 A3033 RMK AO2 SLP268 T00940083 10133 20089 51015
KCHO 211053Z 00000KT 7SM CLR 09/09 A3031 RMK AO2 SLP262 T00940089
KCHO 210953Z 00000KT 9SM CLR 09/08 A3030 RMK AO2 SLP257 T00940083